createdAt,value
2022-08-21T00:02:24.182Z,16.94
2022-08-21T00:04:57.473Z,16.90
2022-08-21T00:07:25.298Z,16.88
2022-08-21T00:09:52.910Z,16.87
2022-08-21T00:12:19.874Z,16.83
2022-08-21T00:14:47.517Z,16.89
2022-08-21T00:17:14.374Z,16.89
2022-08-21T00:19:41.296Z,16.92
2022-08-21T00:22:08.448Z,16.87
2022-08-21T00:24:35.535Z,16.92
2022-08-21T00:27:02.342Z,16.93
2022-08-21T00:29:29.199Z,16.96
2022-08-21T00:31:55.903Z,17.00
2022-08-21T00:34:22.636Z,16.94
2022-08-21T00:36:49.561Z,16.96
2022-08-21T00:39:16.243Z,16.97
2022-08-21T00:41:43.450Z,16.98
2022-08-21T00:44:14.749Z,16.99
2022-08-21T00:46:43.665Z,17.01
2022-08-21T00:49:12.799Z,16.99
2022-08-21T00:52:00.906Z,17.05
2022-08-21T00:54:30.799Z,17.07
2022-08-21T00:57:10.265Z,17.06
2022-08-21T00:59:39.365Z,17.05
2022-08-21T01:02:08.571Z,17.11
2022-08-21T01:04:35.694Z,17.16
2022-08-21T01:07:03.418Z,17.19
2022-08-21T01:09:30.228Z,17.14
2022-08-21T01:11:57.037Z,17.18
2022-08-21T01:14:24.870Z,17.18
2022-08-21T01:16:53.811Z,17.22
2022-08-21T01:19:22.441Z,17.24
2022-08-21T01:21:49.637Z,17.27
2022-08-21T01:24:16.462Z,17.22
2022-08-21T01:26:44.434Z,17.24
2022-08-21T01:29:40.552Z,17.26
2022-08-21T01:32:13.222Z,17.27
2022-08-21T01:34:43.886Z,17.26
2022-08-21T01:37:12.448Z,17.30
2022-08-21T01:39:40.068Z,17.30
2022-08-21T01:42:07.806Z,17.33
2022-08-21T01:44:35.021Z,17.33
2022-08-21T01:47:06.686Z,17.31
2022-08-21T01:49:33.452Z,17.27
2022-08-21T01:52:00.477Z,17.27
2022-08-21T01:54:27.635Z,17.26
2022-08-21T01:56:55.823Z,17.26
2022-08-21T01:59:23.937Z,17.23
2022-08-21T02:01:51.735Z,17.19
2022-08-21T02:04:18.459Z,17.17
2022-08-21T02:06:45.305Z,17.16
2022-08-21T02:09:13.371Z,17.15
2022-08-21T02:11:42.203Z,17.12
2022-08-21T02:14:10.194Z,17.14
2022-08-21T02:16:37.246Z,17.17
2022-08-21T02:19:04.617Z,17.16
2022-08-21T02:21:32.261Z,17.15
2022-08-21T02:23:59.117Z,17.13
2022-08-21T02:26:26.547Z,17.14
2022-08-21T02:28:53.449Z,17.15
2022-08-21T02:31:20.422Z,17.16
2022-08-21T02:33:47.351Z,17.18
2022-08-21T02:36:14.836Z,17.19
2022-08-21T02:38:44.022Z,17.19
2022-08-21T02:41:15.032Z,17.18
2022-08-21T02:43:42.199Z,17.19
2022-08-21T02:46:10.693Z,17.26
2022-08-21T02:48:38.536Z,17.23
2022-08-21T02:51:08.705Z,17.23
2022-08-21T02:53:36.452Z,17.26
2022-08-21T02:56:06.437Z,17.30
2022-08-21T02:58:36.285Z,17.30
2022-08-21T03:01:04.909Z,17.36
2022-08-21T03:03:31.777Z,17.36
2022-08-21T03:05:58.849Z,17.32
2022-08-21T03:08:27.678Z,17.34
2022-08-21T03:10:55.050Z,17.30
2022-08-21T03:13:22.120Z,17.27
2022-08-21T03:15:49.781Z,17.24
2022-08-21T03:18:17.828Z,17.26
2022-08-21T03:20:46.135Z,17.24
2022-08-21T03:23:16.730Z,17.22
2022-08-21T03:25:44.145Z,17.24
2022-08-21T03:28:13.787Z,17.27
2022-08-21T03:30:52.005Z,17.27
2022-08-21T03:33:20.680Z,17.25
2022-08-21T03:36:02.781Z,17.16
2022-08-21T03:38:31.578Z,17.12
2022-08-21T03:40:59.259Z,17.08
2022-08-21T03:43:26.098Z,17.08
2022-08-21T03:45:52.780Z,17.14
2022-08-21T03:48:19.997Z,17.11
2022-08-21T03:50:48.218Z,17.07
2022-08-21T03:53:17.992Z,17.09
2022-08-21T03:55:46.752Z,17.09
2022-08-21T03:58:17.327Z,17.09
2022-08-21T04:00:46.701Z,17.11
2022-08-21T04:03:13.890Z,17.09
2022-08-21T04:05:41.309Z,17.12
2022-08-21T04:08:08.413Z,17.12
2022-08-21T04:10:37.982Z,17.15
2022-08-21T04:13:06.473Z,17.18
2022-08-21T04:15:33.752Z,17.18
2022-08-21T04:18:00.768Z,17.17
2022-08-21T04:20:28.186Z,17.18
2022-08-21T04:22:55.116Z,17.15
2022-08-21T04:25:24.529Z,17.18
2022-08-21T04:27:52.160Z,17.18
2022-08-21T04:30:20.370Z,17.11
2022-08-21T04:32:49.794Z,17.12
2022-08-21T04:35:19.791Z,17.16
2022-08-21T04:37:47.504Z,17.14
2022-08-21T04:40:16.610Z,17.17
2022-08-21T04:42:55.596Z,17.18
2022-08-21T04:45:32.335Z,17.19
2022-08-21T04:48:01.071Z,17.16
2022-08-21T04:50:37.354Z,17.14
2022-08-21T04:53:08.420Z,17.12
2022-08-21T04:55:35.593Z,17.11
2022-08-21T04:58:02.947Z,17.12
2022-08-21T05:00:29.796Z,17.16
2022-08-21T05:03:00.116Z,17.17
2022-08-21T05:05:30.198Z,17.13
2022-08-21T05:07:59.450Z,17.14
2022-08-21T05:10:26.745Z,17.14
2022-08-21T05:12:53.879Z,17.15
2022-08-21T05:15:20.657Z,17.11
2022-08-21T05:17:55.439Z,17.17
2022-08-21T05:20:28.919Z,17.14
2022-08-21T05:22:56.979Z,17.18
2022-08-21T05:25:24.098Z,17.21
2022-08-21T05:27:52.131Z,17.24
2022-08-21T05:30:20.173Z,17.27
2022-08-21T05:32:47.090Z,17.29
2022-08-21T05:35:14.630Z,17.37
2022-08-21T05:37:41.461Z,17.35
2022-08-21T05:40:22.359Z,17.38
2022-08-21T05:42:55.364Z,17.44
2022-08-21T05:45:41.261Z,17.44
2022-08-21T05:48:17.338Z,17.48
2022-08-21T05:50:45.696Z,17.44
2022-08-21T05:53:13.414Z,17.44
2022-08-21T05:55:46.078Z,17.47
2022-08-21T05:58:19.162Z,17.47
2022-08-21T06:00:48.473Z,17.45
2022-08-21T06:03:26.080Z,17.50
2022-08-21T06:05:53.800Z,17.54
2022-08-21T06:08:21.867Z,17.42
2022-08-21T06:10:50.413Z,17.45
2022-08-21T06:13:18.778Z,17.44
2022-08-21T06:15:45.473Z,17.50
2022-08-21T06:18:13.045Z,17.52
2022-08-21T06:20:41.887Z,17.53
2022-08-21T06:23:09.020Z,17.49
2022-08-21T06:25:36.352Z,17.52
2022-08-21T06:28:06.355Z,17.56
2022-08-21T06:30:33.145Z,17.61
2022-08-21T06:33:01.047Z,17.55
2022-08-21T06:35:29.988Z,17.56
2022-08-21T06:37:58.018Z,17.56
2022-08-21T06:40:26.219Z,17.58
2022-08-21T06:42:53.194Z,17.71
2022-08-21T06:45:20.688Z,17.78
2022-08-21T06:47:47.361Z,17.79
2022-08-21T06:50:14.449Z,17.82
2022-08-21T06:52:41.427Z,17.87
2022-08-21T06:55:10.609Z,17.95
2022-08-21T06:57:37.375Z,17.95
2022-08-21T07:00:08.986Z,17.94
2022-08-21T07:02:35.865Z,17.88
2022-08-21T07:05:17.898Z,17.84
2022-08-21T07:07:45.517Z,17.84
2022-08-21T07:10:22.450Z,17.93
2022-08-21T07:12:52.607Z,17.88
2022-08-21T07:15:29.287Z,17.80
2022-08-21T07:17:58.106Z,17.80
2022-08-21T07:20:24.993Z,17.86
2022-08-21T07:22:52.146Z,17.83
2022-08-21T07:25:18.866Z,17.83
2022-08-21T07:27:45.629Z,17.77
2022-08-21T07:30:12.803Z,17.76
2022-08-21T07:32:39.492Z,17.68
2022-08-21T07:35:06.958Z,17.67
2022-08-21T07:37:34.149Z,17.64
2022-08-21T07:40:00.984Z,17.67
2022-08-21T07:42:27.820Z,17.73
2022-08-21T07:44:56.535Z,17.73
2022-08-21T07:47:41.920Z,17.70
2022-08-21T07:50:12.101Z,17.73
2022-08-21T07:52:40.201Z,17.67
2022-08-21T07:55:08.792Z,17.70
2022-08-21T07:57:35.668Z,17.67
2022-08-21T08:00:04.410Z,17.67
2022-08-21T08:02:31.081Z,17.70
2022-08-21T08:05:10.245Z,17.62
2022-08-21T08:07:36.990Z,17.55
2022-08-21T08:10:06.481Z,17.60
2022-08-21T08:12:33.183Z,17.54
2022-08-21T08:15:01.408Z,17.54
2022-08-21T08:17:28.944Z,17.52
2022-08-21T08:19:56.431Z,17.55
2022-08-21T08:22:27.082Z,17.56
2022-08-21T08:24:54.791Z,17.64
2022-08-21T08:27:22.284Z,17.69
2022-08-21T08:29:49.510Z,17.71
2022-08-21T08:32:16.613Z,17.72
2022-08-21T08:34:44.225Z,17.74
2022-08-21T08:37:12.007Z,17.79
2022-08-21T08:39:39.157Z,17.92
2022-08-21T08:42:32.628Z,18.00
2022-08-21T08:45:20.582Z,18.09
2022-08-21T08:47:59.102Z,18.15
2022-08-21T08:50:42.031Z,18.16
2022-08-21T08:53:27.076Z,18.15
2022-08-21T08:55:54.126Z,18.14
2022-08-21T08:58:35.220Z,18.16
2022-08-21T09:01:16.670Z,18.14
2022-08-21T09:03:44.246Z,18.12
2022-08-21T09:06:21.544Z,18.12
2022-08-21T09:09:20.109Z,18.14
2022-08-21T09:12:07.248Z,18.16
2022-08-21T09:15:19.451Z,18.33
2022-08-21T09:18:17.745Z,18.40
2022-08-21T09:21:20.446Z,18.40
2022-08-21T09:24:28.087Z,18.25
2022-08-21T09:27:12.800Z,18.25
2022-08-21T09:29:52.003Z,18.25
2022-08-21T09:32:22.078Z,18.29
2022-08-21T09:35:11.030Z,18.25
2022-08-21T09:38:08.754Z,18.19
2022-08-21T09:40:45.449Z,18.21
2022-08-21T09:43:23.131Z,18.26
2022-08-21T09:46:02.131Z,18.15
2022-08-21T09:48:32.545Z,18.12
2022-08-21T09:51:23.446Z,17.94
2022-08-21T09:54:20.715Z,17.98
2022-08-21T09:57:35.553Z,17.91
2022-08-21T10:00:30.837Z,17.93
2022-08-21T10:03:19.950Z,18.03
2022-08-21T10:06:06.265Z,17.96
2022-08-21T10:08:37.925Z,17.90
2022-08-21T10:11:14.698Z,17.92
2022-08-21T10:14:03.810Z,17.92
2022-08-21T10:17:09.219Z,17.85
2022-08-21T10:20:01.073Z,17.87
2022-08-21T10:23:24.475Z,17.97
2022-08-21T10:26:20.125Z,18.13
2022-08-21T10:29:12.518Z,18.19
2022-08-21T10:32:25.622Z,18.20
2022-08-21T10:35:38.425Z,18.22
2022-08-21T10:39:02.676Z,18.26
2022-08-21T10:48:47.717Z,18.23
2022-08-21T10:51:40.178Z,18.14
2022-08-21T10:54:45.893Z,18.02
2022-08-21T10:57:57.821Z,18.02
2022-08-21T11:00:40.053Z,17.98
2022-08-21T11:06:40.278Z,17.93
2022-08-21T11:09:19.291Z,17.96
2022-08-21T11:12:10.900Z,17.96
2022-08-21T11:14:58.929Z,18.03
2022-08-21T11:17:45.480Z,18.13
2022-08-21T11:20:53.178Z,18.17
2022-08-21T11:23:44.424Z,18.22
2022-08-21T11:26:33.867Z,18.27
2022-08-21T11:29:11.116Z,18.30
2022-08-21T11:32:40.025Z,18.32
2022-08-21T11:35:40.943Z,18.35
2022-08-21T11:42:18.957Z,17.99
2022-08-21T11:45:12.106Z,17.79
2022-08-21T11:47:53.748Z,17.72
2022-08-21T11:50:34.484Z,17.79
2022-08-21T11:53:21.310Z,17.81
2022-08-21T11:56:03.324Z,17.92
2022-08-21T11:58:44.666Z,18.00
2022-08-21T12:01:26.393Z,18.12
2022-08-21T12:03:59.218Z,18.31
2022-08-21T12:06:35.332Z,18.36
2022-08-21T12:09:31.694Z,18.55
2022-08-21T12:12:14.594Z,18.64
2022-08-21T12:14:47.351Z,18.64
2022-08-21T12:17:23.544Z,18.72
2022-08-21T12:20:03.961Z,18.80
2022-08-21T12:22:42.098Z,18.72
2022-08-21T12:25:21.394Z,18.67
2022-08-21T12:28:03.034Z,18.61
2022-08-21T12:30:43.143Z,18.52
2022-08-21T12:33:40.283Z,18.39
2022-08-21T12:36:16.432Z,18.52
2022-08-21T12:38:57.484Z,18.65
2022-08-21T12:41:38.498Z,18.74
2022-08-21T12:44:17.632Z,18.96
2022-08-21T12:46:55.639Z,19.13
2022-08-21T12:49:32.792Z,19.07
2022-08-21T12:52:10.472Z,19.07
2022-08-21T12:54:43.482Z,19.17
2022-08-21T12:57:19.946Z,19.20
2022-08-21T12:59:47.002Z,19.27
2022-08-21T13:02:19.484Z,19.23
2022-08-21T13:04:48.798Z,19.16
2022-08-21T13:07:23.261Z,19.28
2022-08-21T13:09:59.926Z,19.37
2022-08-21T13:12:32.229Z,19.30
2022-08-21T13:15:04.330Z,19.23
2022-08-21T13:17:40.020Z,19.17
2022-08-21T13:20:19.602Z,19.18
2022-08-21T13:22:47.345Z,19.12
2022-08-21T13:25:16.477Z,19.12
2022-08-21T13:27:45.378Z,19.18
2022-08-21T13:30:21.226Z,19.06
2022-08-21T13:32:52.116Z,19.05
2022-08-21T13:35:36.962Z,19.11
2022-08-21T13:38:06.298Z,19.08
2022-08-21T13:40:43.670Z,19.09
2022-08-21T13:43:19.933Z,18.92
2022-08-21T13:45:53.611Z,18.92
2022-08-21T13:48:22.869Z,18.92
2022-08-21T13:50:50.382Z,18.91
2022-08-21T13:53:43.748Z,18.83
2022-08-21T13:56:10.447Z,18.79
2022-08-21T13:58:46.133Z,18.78
2022-08-21T14:01:26.952Z,18.58
2022-08-21T14:03:58.982Z,18.59
2022-08-21T14:06:28.334Z,18.50
2022-08-21T14:09:09.166Z,18.46
2022-08-21T14:11:37.472Z,18.49
2022-08-21T14:14:14.820Z,18.45
2022-08-21T14:16:47.989Z,18.45
2022-08-21T14:19:46.013Z,18.37
2022-08-21T14:22:38.962Z,18.44
2022-08-21T14:25:07.772Z,18.60
2022-08-21T14:27:37.394Z,18.70
2022-08-21T14:30:12.314Z,18.79
2022-08-21T14:32:44.856Z,18.91
2022-08-21T14:35:13.595Z,19.00
2022-08-21T14:37:43.821Z,18.98
2022-08-21T14:40:11.614Z,19.08
2022-08-21T14:42:42.795Z,19.16
2022-08-21T14:45:31.410Z,19.11
2022-08-21T14:47:59.250Z,19.08
2022-08-21T14:50:28.316Z,19.20
2022-08-21T14:52:56.064Z,19.15
2022-08-21T14:55:22.844Z,19.22
2022-08-21T14:57:52.073Z,19.22
2022-08-21T15:00:23.966Z,19.26
2022-08-21T15:02:54.176Z,19.31
2022-08-21T15:05:24.748Z,19.33
2022-08-21T15:07:59.876Z,19.30
2022-08-21T15:10:26.785Z,19.32
2022-08-21T15:12:53.526Z,19.33
2022-08-21T15:15:20.668Z,19.30
2022-08-21T15:17:48.488Z,19.20
2022-08-21T15:20:16.115Z,19.15
2022-08-21T15:22:47.769Z,19.14
2022-08-21T15:25:15.494Z,19.06
2022-08-21T15:27:42.788Z,19.02
2022-08-21T15:30:10.706Z,18.96
2022-08-21T15:32:39.021Z,19.04
2022-08-21T15:35:06.350Z,19.03
2022-08-21T15:37:33.389Z,18.94
2022-08-21T15:40:00.550Z,18.87
2022-08-21T15:42:28.595Z,18.89
2022-08-21T15:44:56.910Z,18.98
2022-08-21T15:47:29.439Z,19.00
2022-08-21T15:49:56.451Z,19.05
2022-08-21T15:52:24.357Z,19.06
2022-08-21T15:54:51.369Z,19.03
2022-08-21T15:57:21.329Z,19.09
2022-08-21T15:59:51.854Z,19.12
2022-08-21T16:02:23.817Z,19.15
2022-08-21T16:04:50.735Z,19.16
2022-08-21T16:07:17.846Z,19.08
2022-08-21T16:09:44.624Z,19.06
2022-08-21T16:12:20.686Z,19.06
2022-08-21T16:14:47.543Z,19.02
2022-08-21T16:17:14.282Z,19.00
2022-08-21T16:19:41.314Z,19.00
2022-08-21T16:22:08.059Z,18.93
2022-08-21T16:24:36.534Z,18.80
2022-08-21T16:27:04.766Z,18.70
2022-08-21T16:29:37.549Z,18.62
2022-08-21T16:32:06.094Z,18.59
2022-08-21T16:34:34.084Z,18.53
2022-08-21T16:37:00.702Z,18.44
2022-08-21T16:39:30.393Z,18.38
2022-08-21T16:41:58.703Z,18.40
2022-08-21T16:44:25.639Z,18.33
2022-08-21T16:46:57.249Z,18.31
2022-08-21T16:49:25.042Z,18.26
2022-08-21T16:51:51.925Z,18.23
2022-08-21T16:54:19.180Z,18.17
2022-08-21T16:56:50.042Z,18.16
2022-08-21T16:59:21.029Z,18.14
2022-08-21T17:01:48.884Z,18.11
2022-08-21T17:04:15.931Z,18.08
2022-08-21T17:06:44.378Z,18.08
2022-08-21T17:09:12.108Z,18.06
2022-08-21T17:11:43.748Z,18.04
2022-08-21T17:14:21.516Z,18.02
2022-08-21T17:16:55.617Z,18.01
2022-08-21T17:19:23.438Z,17.97
2022-08-21T17:21:50.415Z,17.89
2022-08-21T17:24:17.112Z,17.93
2022-08-21T17:26:44.924Z,17.90
2022-08-21T17:29:14.596Z,17.92
2022-08-21T17:31:43.159Z,17.87
2022-08-21T17:34:11.545Z,17.89
2022-08-21T17:36:38.548Z,17.83
2022-08-21T17:39:06.019Z,17.79
2022-08-21T17:41:33.951Z,17.79
2022-08-21T17:44:07.111Z,17.74
2022-08-21T17:46:33.738Z,17.71
2022-08-21T17:49:01.622Z,17.67
2022-08-21T17:51:28.763Z,17.69
2022-08-21T17:53:55.825Z,17.66
2022-08-21T17:56:26.938Z,17.62
2022-08-21T17:58:53.578Z,17.63
2022-08-21T18:01:21.079Z,17.63
2022-08-21T18:03:48.709Z,17.65
2022-08-21T18:06:17.929Z,17.66
2022-08-21T18:08:45.139Z,17.68
2022-08-21T18:11:23.414Z,17.67
2022-08-21T18:13:54.124Z,17.61
2022-08-21T18:16:22.594Z,17.58
2022-08-21T18:18:51.673Z,17.53
2022-08-21T18:21:19.372Z,17.49
2022-08-21T18:23:46.106Z,17.49
2022-08-21T18:26:22.794Z,17.46
2022-08-21T18:28:49.866Z,17.52
2022-08-21T18:31:16.805Z,17.55
2022-08-21T18:33:57.935Z,17.54
2022-08-21T18:36:27.335Z,17.53
2022-08-21T18:39:13.633Z,17.56
2022-08-21T18:41:45.655Z,17.54
2022-08-21T18:44:14.755Z,17.55
2022-08-21T18:46:45.938Z,17.53
2022-08-21T18:49:12.777Z,17.55
2022-08-21T18:51:42.521Z,17.59
2022-08-21T18:54:12.909Z,17.60
2022-08-21T18:56:40.669Z,17.64
2022-08-21T18:59:08.220Z,17.64
2022-08-21T19:01:35.619Z,17.59
2022-08-21T19:04:02.978Z,17.50
2022-08-21T19:06:30.046Z,17.49
2022-08-21T19:08:58.190Z,17.48
2022-08-21T19:11:25.918Z,17.45
2022-08-21T19:13:53.917Z,17.39
2022-08-21T19:16:21.781Z,17.37
2022-08-21T19:18:48.574Z,17.34
2022-08-21T19:21:16.337Z,17.35
2022-08-21T19:23:44.411Z,17.33
2022-08-21T19:26:12.222Z,17.32
2022-08-21T19:31:34.008Z,17.31
2022-08-21T19:34:23.859Z,17.29
2022-08-21T19:36:50.689Z,17.27
2022-08-21T19:39:18.214Z,17.25
2022-08-21T19:41:51.102Z,17.27
2022-08-21T19:44:21.473Z,17.20
2022-08-21T19:46:51.346Z,17.22
2022-08-21T19:49:21.166Z,17.23
2022-08-21T19:51:48.923Z,17.26
2022-08-21T19:54:22.274Z,17.26
2022-08-21T19:56:50.093Z,17.24
2022-08-21T19:59:18.538Z,17.24
2022-08-21T20:01:52.346Z,17.28
2022-08-21T20:04:19.243Z,17.27
2022-08-21T20:06:46.495Z,17.30
2022-08-21T20:09:16.208Z,17.29
2022-08-21T20:11:47.250Z,17.28
2022-08-21T20:14:16.651Z,17.26
2022-08-21T20:16:44.167Z,17.21
2022-08-21T20:19:11.474Z,17.20
2022-08-21T20:21:43.763Z,17.19
2022-08-21T20:27:02.513Z,17.15
2022-08-21T20:29:36.203Z,17.12
2022-08-21T20:32:05.272Z,17.16
2022-08-21T20:34:32.929Z,17.11
2022-08-21T20:37:01.311Z,17.14
2022-08-21T20:39:28.521Z,17.18
2022-08-21T20:41:56.633Z,17.19
2022-08-21T20:44:29.494Z,17.16
2022-08-21T20:46:57.908Z,17.08
2022-08-21T20:49:31.350Z,17.02
2022-08-21T20:51:59.792Z,17.06
2022-08-21T20:54:59.958Z,17.04
2022-08-21T20:57:50.982Z,17.02
2022-08-21T21:00:22.814Z,17.08
2022-08-21T21:02:55.989Z,17.07
2022-08-21T21:05:33.438Z,17.07
2022-08-21T21:08:05.990Z,17.06
2022-08-21T21:10:41.793Z,17.09
2022-08-21T21:13:33.216Z,17.03
2022-08-21T21:16:04.697Z,17.03
2022-08-21T21:18:43.053Z,17.03
2022-08-21T21:21:24.589Z,17.03
2022-08-21T21:24:22.742Z,17.02
2022-08-21T21:27:23.587Z,17.02
2022-08-21T21:30:00.732Z,17.00
2022-08-21T21:32:28.815Z,16.98
2022-08-21T21:34:55.595Z,16.93
2022-08-21T21:37:37.297Z,16.90
2022-08-21T21:40:24.310Z,16.86
2022-08-21T21:43:27.084Z,16.89
2022-08-21T21:46:23.442Z,16.90
2022-08-21T21:49:50.136Z,16.88
2022-08-21T21:52:54.756Z,16.91
2022-08-21T21:55:57.261Z,16.93
2022-08-21T21:59:17.692Z,16.90
2022-08-21T22:02:30.811Z,16.85
2022-08-21T22:08:48.838Z,16.85
2022-08-21T22:14:41.575Z,16.82
2022-08-21T22:17:41.136Z,16.74
2022-08-21T22:20:15.078Z,16.73
2022-08-21T22:22:43.956Z,16.67
2022-08-21T22:25:26.269Z,16.64
2022-08-21T22:28:02.840Z,16.63
2022-08-21T22:31:05.282Z,16.57
2022-08-21T22:33:35.005Z,16.50
2022-08-21T22:36:19.516Z,16.36
2022-08-21T22:38:47.218Z,16.32
2022-08-21T22:41:22.906Z,16.31
2022-08-21T22:44:01.783Z,16.34
2022-08-21T22:46:57.215Z,16.39
2022-08-21T22:49:47.295Z,16.39
2022-08-21T22:52:22.276Z,16.46
2022-08-21T22:54:51.615Z,16.49
2022-08-21T22:57:32.291Z,16.52
2022-08-21T23:00:08.656Z,16.51
2022-08-21T23:02:59.149Z,16.54
2022-08-21T23:05:36.382Z,16.57
2022-08-21T23:08:25.045Z,16.56
2022-08-21T23:10:58.028Z,16.56
2022-08-21T23:13:25.262Z,16.59
2022-08-21T23:16:30.914Z,16.61
2022-08-21T23:19:29.040Z,16.61
2022-08-21T23:22:39.585Z,16.58
2022-08-21T23:25:44.988Z,16.47
2022-08-21T23:28:52.165Z,16.49
2022-08-21T23:31:25.738Z,16.50
2022-08-21T23:34:27.494Z,16.51
2022-08-21T23:37:41.170Z,16.49
2022-08-21T23:40:50.450Z,16.41
2022-08-21T23:44:00.036Z,16.41
2022-08-21T23:47:01.886Z,16.40
2022-08-21T23:49:47.082Z,16.36
2022-08-21T23:52:20.880Z,16.32
2022-08-21T23:55:14.135Z,16.35
